sensor_id;sensor_type;location;lat;lon;timestamp;temperature;humidity
14349;DHT22;7258;50.376;8.742;2023-04-24T00:01:21;10.50;99.90
14349;DHT22;7258;50.376;8.742;2023-04-24T00:03:27;10.40;99.90
14349;DHT22;7258;50.376;8.742;2023-04-24T00:05:36;10.40;99.90
14349;DHT22;7258;50.376;8.742;2023-04-24T00:07:50;10.40;99.90
14349;DHT22;7258;50.376;8.742;2023-04-24T00:09:55;10.40;99.90
14349;DHT22;7258;50.376;8.742;2023-04-24T00:12:04;10.40;99.90
14349;DHT22;7258;50.376;8.742;2023-04-24T00:14:09;10.40;99.90
14349;DHT22;7258;50.376;8.742;2023-04-24T00:16:24;10.30;99.90
14349;DHT22;7258;50.376;8.742;2023-04-24T00:18:29;10.30;99.90
14349;DHT22;7258;50.376;8.742;2023-04-24T00:20:32;10.30;99.90
14349;DHT22;7258;50.376;8.742;2023-04-24T00:22:44;10.30;99.90
14349;DHT22;7258;50.376;8.742;2023-04-24T00:24:49;10.30;99.90
14349;DHT22;7258;50.376;8.742;2023-04-24T00:26:52;10.30;99.90
14349;DHT22;7258;50.376;8.742;2023-04-24T00:29:01;10.30;99.90
14349;DHT22;7258;50.376;8.742;2023-04-24T00:31:04;10.30;99.90
14349;DHT22;7258;50.376;8.742;2023-04-24T00:33:08;10.40;99.90
14349;DHT22;7258;50.376;8.742;2023-04-24T00:35:13;10.50;99.90
14349;DHT22;7258;50.376;8.742;2023-04-24T00:37:19;10.50;99.90
14349;DHT22;7258;50.376;8.742;2023-04-24T00:39:26;10.60;99.90
14349;DHT22;7258;50.376;8.742;2023-04-24T00:41:44;10.60;99.90
14349;DHT22;7258;50.376;8.742;2023-04-24T00:43:48;10.70;99.90
14349;DHT22;7258;50.376;8.742;2023-04-24T00:45:51;10.80;99.90
14349;DHT22;7258;50.376;8.742;2023-04-24T00:47:54;10.80;99.90
14349;DHT22;7258;50.376;8.742;2023-04-24T00:49:57;10.80;99.90
14349;DHT22;7258;50.376;8.742;2023-04-24T00:52:04;10.80;99.90
14349;DHT22;7258;50.376;8.742;2023-04-24T00:54:10;10.90;99.90
14349;DHT22;7258;50.376;8.742;2023-04-24T00:56:17;10.90;99.90
14349;DHT22;7258;50.376;8.742;2023-04-24T00:58:20;10.90;99.90
14349;DHT22;7258;50.376;8.742;2023-04-24T01:00:25;10.90;99.90
14349;DHT22;7258;50.376;8.742;2023-04-24T01:02:34;10.90;99.90
14349;DHT22;7258;50.376;8.742;2023-04-24T01:04:42;10.90;99.90
14349;DHT22;7258;50.376;8.742;2023-04-24T01:06:45;11.00;99.90
14349;DHT22;7258;50.376;8.742;2023-04-24T01:08:56;11.00;99.90
14349;DHT22;7258;50.376;8.742;2023-04-24T01:11:05;11.00;99.90
14349;DHT22;7258;50.376;8.742;2023-04-24T01:13:16;11.00;99.90
14349;DHT22;7258;50.376;8.742;2023-04-24T01:15:34;11.00;99.90
14349;DHT22;7258;50.376;8.742;2023-04-24T01:17:40;11.00;99.90
14349;DHT22;7258;50.376;8.742;2023-04-24T01:19:52;11.00;99.90
14349;DHT22;7258;50.376;8.742;2023-04-24T01:22:01;11.00;99.90
14349;DHT22;7258;50.376;8.742;2023-04-24T01:24:14;11.00;99.90
14349;DHT22;7258;50.376;8.742;2023-04-24T01:26:23;11.00;99.90
14349;DHT22;7258;50.376;8.742;2023-04-24T01:28:30;11.00;99.90
14349;DHT22;7258;50.376;8.742;2023-04-24T01:30:41;11.00;99.90
14349;DHT22;7258;50.376;8.742;2023-04-24T01:32:46;11.00;99.90
14349;DHT22;7258;50.376;8.742;2023-04-24T01:34:51;11.00;99.90
14349;DHT22;7258;50.376;8.742;2023-04-24T01:37:02;11.00;99.90
14349;DHT22;7258;50.376;8.742;2023-04-24T01:39:11;11.00;99.90
14349;DHT22;7258;50.376;8.742;2023-04-24T01:41:21;11.00;99.90
14349;DHT22;7258;50.376;8.742;2023-04-24T01:43:28;11.00;99.90
14349;DHT22;7258;50.376;8.742;2023-04-24T01:45:32;11.10;99.90
14349;DHT22;7258;50.376;8.742;2023-04-24T01:47:41;11.10;99.90
14349;DHT22;7258;50.376;8.742;2023-04-24T01:49:48;11.10;99.90
14349;DHT22;7258;50.376;8.742;2023-04-24T01:52:00;11.10;99.90
14349;DHT22;7258;50.376;8.742;2023-04-24T01:54:03;11.10;99.90
14349;DHT22;7258;50.376;8.742;2023-04-24T01:56:09;11.10;99.90
14349;DHT22;7258;50.376;8.742;2023-04-24T01:58:17;11.10;99.90
14349;DHT22;7258;50.376;8.742;2023-04-24T02:00:33;11.10;99.90
14349;DHT22;7258;50.376;8.742;2023-04-24T02:02:47;11.10;99.90
14349;DHT22;7258;50.376;8.742;2023-04-24T02:04:57;11.10;99.90
14349;DHT22;7258;50.376;8.742;2023-04-24T02:07:12;11.20;99.90
14349;DHT22;7258;50.376;8.742;2023-04-24T02:09:21;11.10;99.90
14349;DHT22;7258;50.376;8.742;2023-04-24T02:11:34;11.20;99.90
14349;DHT22;7258;50.376;8.742;2023-04-24T02:13:49;11.20;99.90
14349;DHT22;7258;50.376;8.742;2023-04-24T02:15:53;11.20;99.90
14349;DHT22;7258;50.376;8.742;2023-04-24T02:17:56;11.20;99.90
14349;DHT22;7258;50.376;8.742;2023-04-24T02:19:59;11.10;99.90
14349;DHT22;7258;50.376;8.742;2023-04-24T02:22:04;11.10;99.90
14349;DHT22;7258;50.376;8.742;2023-04-24T02:24:07;11.10;99.90
14349;DHT22;7258;50.376;8.742;2023-04-24T02:26:10;11.00;99.90
14349;DHT22;7258;50.376;8.742;2023-04-24T02:28:13;10.90;99.90
14349;DHT22;7258;50.376;8.742;2023-04-24T02:30:18;10.90;99.90
14349;DHT22;7258;50.376;8.742;2023-04-24T02:32:21;10.80;99.90
14349;DHT22;7258;50.376;8.742;2023-04-24T02:34:27;10.70;99.90
14349;DHT22;7258;50.376;8.742;2023-04-24T02:36:30;10.70;99.90
14349;DHT22;7258;50.376;8.742;2023-04-24T02:38:33;10.60;99.90
14349;DHT22;7258;50.376;8.742;2023-04-24T02:40:36;10.60;99.90
14349;DHT22;7258;50.376;8.742;2023-04-24T02:42:39;10.50;99.90
14349;DHT22;7258;50.376;8.742;2023-04-24T02:44:42;10.50;99.90
14349;DHT22;7258;50.376;8.742;2023-04-24T02:46:52;10.40;99.90
14349;DHT22;7258;50.376;8.742;2023-04-24T02:48:59;10.40;99.90
14349;DHT22;7258;50.376;8.742;2023-04-24T02:51:16;10.30;99.90
14349;DHT22;7258;50.376;8.742;2023-04-24T02:53:19;10.30;99.90
14349;DHT22;7258;50.376;8.742;2023-04-24T02:55:27;10.30;99.90
14349;DHT22;7258;50.376;8.742;2023-04-24T02:57:30;10.20;99.90
14349;DHT22;7258;50.376;8.742;2023-04-24T02:59:33;10.20;99.90
14349;DHT22;7258;50.376;8.742;2023-04-24T03:01:42;10.20;99.90
14349;DHT22;7258;50.376;8.742;2023-04-24T03:03:52;10.20;99.90
14349;DHT22;7258;50.376;8.742;2023-04-24T03:06:03;10.10;99.90
14349;DHT22;7258;50.376;8.742;2023-04-24T03:08:20;10.10;99.90
14349;DHT22;7258;50.376;8.742;2023-04-24T03:10:37;10.10;99.90
14349;DHT22;7258;50.376;8.742;2023-04-24T03:12:40;10.10;99.90
14349;DHT22;7258;50.376;8.742;2023-04-24T03:15:03;10.10;99.90
14349;DHT22;7258;50.376;8.742;2023-04-24T03:17:21;10.10;99.90
14349;DHT22;7258;50.376;8.742;2023-04-24T03:19:35;10.10;99.90
14349;DHT22;7258;50.376;8.742;2023-04-24T03:21:38;10.10;99.90
14349;DHT22;7258;50.376;8.742;2023-04-24T03:23:47;10.10;99.90
14349;DHT22;7258;50.376;8.742;2023-04-24T03:25:51;10.10;99.90
14349;DHT22;7258;50.376;8.742;2023-04-24T03:28:01;10.10;99.90
14349;DHT22;7258;50.376;8.742;2023-04-24T03:30:11;10.10;99.90
14349;DHT22;7258;50.376;8.742;2023-04-24T03:32:15;10.10;99.90
14349;DHT22;7258;50.376;8.742;2023-04-24T03:34:38;10.10;99.90
14349;DHT22;7258;50.376;8.742;2023-04-24T03:36:50;10.20;99.90
14349;DHT22;7258;50.376;8.742;2023-04-24T03:39:10;10.20;99.90
14349;DHT22;7258;50.376;8.742;2023-04-24T03:41:13;10.20;99.90
14349;DHT22;7258;50.376;8.742;2023-04-24T03:43:31;10.20;99.90
14349;DHT22;7258;50.376;8.742;2023-04-24T03:45:40;10.20;99.90
14349;DHT22;7258;50.376;8.742;2023-04-24T03:47:49;10.20;99.90
14349;DHT22;7258;50.376;8.742;2023-04-24T03:50:16;10.20;99.90
14349;DHT22;7258;50.376;8.742;2023-04-24T03:52:19;10.20;99.90
14349;DHT22;7258;50.376;8.742;2023-04-24T03:54:27;10.20;99.90
14349;DHT22;7258;50.376;8.742;2023-04-24T03:56:36;10.20;99.90
14349;DHT22;7258;50.376;8.742;2023-04-24T03:58:45;10.20;99.90
14349;DHT22;7258;50.376;8.742;2023-04-24T04:00:49;10.20;99.90
14349;DHT22;7258;50.376;8.742;2023-04-24T04:02:52;10.20;99.90
14349;DHT22;7258;50.376;8.742;2023-04-24T04:05:03;10.20;99.90
14349;DHT22;7258;50.376;8.742;2023-04-24T04:07:28;10.10;99.90
14349;DHT22;7258;50.376;8.742;2023-04-24T04:09:31;10.10;99.90
14349;DHT22;7258;50.376;8.742;2023-04-24T04:11:35;10.10;99.90
14349;DHT22;7258;50.376;8.742;2023-04-24T04:13:39;10.10;99.90
14349;DHT22;7258;50.376;8.742;2023-04-24T04:15:42;10.10;99.90
14349;DHT22;7258;50.376;8.742;2023-04-24T04:17:45;10.00;99.90
14349;DHT22;7258;50.376;8.742;2023-04-24T04:19:50;10.00;99.90
14349;DHT22;7258;50.376;8.742;2023-04-24T04:21:57;9.90;99.90
14349;DHT22;7258;50.376;8.742;2023-04-24T04:24:00;9.80;99.90
14349;DHT22;7258;50.376;8.742;2023-04-24T04:26:11;9.70;99.90
14349;DHT22;7258;50.376;8.742;2023-04-24T04:28:14;9.70;99.90
14349;DHT22;7258;50.376;8.742;2023-04-24T04:30:17;9.60;99.90
14349;DHT22;7258;50.376;8.742;2023-04-24T04:32:22;9.60;99.90
14349;DHT22;7258;50.376;8.742;2023-04-24T04:34:27;9.50;99.90
14349;DHT22;7258;50.376;8.742;2023-04-24T04:36:42;9.50;99.90
14349;DHT22;7258;50.376;8.742;2023-04-24T04:38:53;9.50;99.90
14349;DHT22;7258;50.376;8.742;2023-04-24T04:41:03;9.50;99.90
14349;DHT22;7258;50.376;8.742;2023-04-24T04:43:07;9.50;99.90
14349;DHT22;7258;50.376;8.742;2023-04-24T04:45:10;9.50;99.90
14349;DHT22;7258;50.376;8.742;2023-04-24T04:47:13;9.40;99.90
14349;DHT22;7258;50.376;8.742;2023-04-24T04:49:17;9.40;99.90
14349;DHT22;7258;50.376;8.742;2023-04-24T04:51:27;9.40;99.90
14349;DHT22;7258;50.376;8.742;2023-04-24T04:53:30;9.40;99.90
14349;DHT22;7258;50.376;8.742;2023-04-24T04:55:35;9.40;99.90
14349;DHT22;7258;50.376;8.742;2023-04-24T04:57:38;9.40;99.90
14349;DHT22;7258;50.376;8.742;2023-04-24T04:59:42;9.30;99.90
14349;DHT22;7258;50.376;8.742;2023-04-24T05:01:47;9.30;99.90
14349;DHT22;7258;50.376;8.742;2023-04-24T05:03:51;9.20;99.90
14349;DHT22;7258;50.376;8.742;2023-04-24T05:05:54;9.10;99.90
14349;DHT22;7258;50.376;8.742;2023-04-24T05:07:57;9.10;99.90
14349;DHT22;7258;50.376;8.742;2023-04-24T05:09:59;9.10;99.90
14349;DHT22;7258;50.376;8.742;2023-04-24T05:12:04;9.10;99.90
14349;DHT22;7258;50.376;8.742;2023-04-24T05:14:07;9.10;99.90
14349;DHT22;7258;50.376;8.742;2023-04-24T05:16:19;9.00;99.90
14349;DHT22;7258;50.376;8.742;2023-04-24T05:18:22;9.00;99.90
14349;DHT22;7258;50.376;8.742;2023-04-24T05:20:25;9.00;99.90
14349;DHT22;7258;50.376;8.742;2023-04-24T05:22:28;9.00;99.90
14349;DHT22;7258;50.376;8.742;2023-04-24T05:24:31;9.10;99.90
14349;DHT22;7258;50.376;8.742;2023-04-24T05:26:34;9.10;99.90
14349;DHT22;7258;50.376;8.742;2023-04-24T05:28:42;9.10;99.90
14349;DHT22;7258;50.376;8.742;2023-04-24T05:30:50;9.10;99.90
14349;DHT22;7258;50.376;8.742;2023-04-24T05:32:53;9.10;99.90
14349;DHT22;7258;50.376;8.742;2023-04-24T05:35:03;9.20;99.90
14349;DHT22;7258;50.376;8.742;2023-04-24T05:37:10;9.20;99.90
14349;DHT22;7258;50.376;8.742;2023-04-24T05:39:13;9.30;99.90
14349;DHT22;7258;50.376;8.742;2023-04-24T05:41:36;9.40;99.90
14349;DHT22;7258;50.376;8.742;2023-04-24T05:43:45;9.40;99.90
14349;DHT22;7258;50.376;8.742;2023-04-24T05:45:51;9.60;99.90
14349;DHT22;7258;50.376;8.742;2023-04-24T05:48:17;9.70;99.90
14349;DHT22;7258;50.376;8.742;2023-04-24T05:50:55;9.80;99.90
14349;DHT22;7258;50.376;8.742;2023-04-24T05:53:13;9.90;99.90
14349;DHT22;7258;50.376;8.742;2023-04-24T05:55:34;10.00;99.90
14349;DHT22;7258;50.376;8.742;2023-04-24T05:58:42;10.10;99.90
14349;DHT22;7258;50.376;8.742;2023-04-24T06:01:46;10.20;99.90
14349;DHT22;7258;50.376;8.742;2023-04-24T06:03:57;10.30;99.90
14349;DHT22;7258;50.376;8.742;2023-04-24T06:06:17;10.40;99.90
14349;DHT22;7258;50.376;8.742;2023-04-24T06:08:42;10.50;99.90
14349;DHT22;7258;50.376;8.742;2023-04-24T06:11:06;10.60;99.90
14349;DHT22;7258;50.376;8.742;2023-04-24T06:13:21;10.70;99.90
14349;DHT22;7258;50.376;8.742;2023-04-24T06:15:28;10.70;99.90
14349;DHT22;7258;50.376;8.742;2023-04-24T06:17:41;10.60;99.90
14349;DHT22;7258;50.376;8.742;2023-04-24T06:20:06;10.40;99.90
14349;DHT22;7258;50.376;8.742;2023-04-24T06:22:18;10.40;99.90
14349;DHT22;7258;50.376;8.742;2023-04-24T06:24:21;10.30;99.90
14349;DHT22;7258;50.376;8.742;2023-04-24T06:26:44;10.30;99.90
14349;DHT22;7258;50.376;8.742;2023-04-24T06:28:50;10.20;99.90
14349;DHT22;7258;50.376;8.742;2023-04-24T06:33:57;10.30;99.90
14349;DHT22;7258;50.376;8.742;2023-04-24T06:36:21;10.40;99.90
14349;DHT22;7258;50.376;8.742;2023-04-24T06:38:34;10.40;99.90
14349;DHT22;7258;50.376;8.742;2023-04-24T06:40:44;10.50;99.90
14349;DHT22;7258;50.376;8.742;2023-04-24T06:43:10;10.50;99.90
14349;DHT22;7258;50.376;8.742;2023-04-24T06:45:21;10.60;99.90
14349;DHT22;7258;50.376;8.742;2023-04-24T06:47:41;10.70;99.90
14349;DHT22;7258;50.376;8.742;2023-04-24T06:50:01;10.70;99.90
14349;DHT22;7258;50.376;8.742;2023-04-24T06:52:14;10.70;99.90
14349;DHT22;7258;50.376;8.742;2023-04-24T06:54:38;10.80;99.90
14349;DHT22;7258;50.376;8.742;2023-04-24T06:57:34;10.90;99.90
14349;DHT22;7258;50.376;8.742;2023-04-24T06:59:57;11.00;99.90
14349;DHT22;7258;50.376;8.742;2023-04-24T07:02:12;11.10;99.90
14349;DHT22;7258;50.376;8.742;2023-04-24T07:04:36;11.20;99.90
14349;DHT22;7258;50.376;8.742;2023-04-24T07:06:47;11.30;99.90
14349;DHT22;7258;50.376;8.742;2023-04-24T07:09:30;11.40;99.90
14349;DHT22;7258;50.376;8.742;2023-04-24T07:11:59;11.30;99.90
14349;DHT22;7258;50.376;8.742;2023-04-24T07:14:06;11.40;99.90
14349;DHT22;7258;50.376;8.742;2023-04-24T07:16:24;11.50;99.90
14349;DHT22;7258;50.376;8.742;2023-04-24T07:21:00;11.50;99.90
14349;DHT22;7258;50.376;8.742;2023-04-24T07:23:20;11.50;99.90
14349;DHT22;7258;50.376;8.742;2023-04-24T07:25:37;11.60;99.90
14349;DHT22;7258;50.376;8.742;2023-04-24T07:27:48;11.60;99.90
14349;DHT22;7258;50.376;8.742;2023-04-24T07:29:56;11.70;99.90
14349;DHT22;7258;50.376;8.742;2023-04-24T07:31:59;11.80;99.90
14349;DHT22;7258;50.376;8.742;2023-04-24T07:34:15;11.90;99.90
14349;DHT22;7258;50.376;8.742;2023-04-24T07:36:34;12.10;99.90
14349;DHT22;7258;50.376;8.742;2023-04-24T07:39:01;12.20;99.90
14349;DHT22;7258;50.376;8.742;2023-04-24T07:41:10;12.40;99.90
14349;DHT22;7258;50.376;8.742;2023-04-24T07:43:22;12.50;99.90
14349;DHT22;7258;50.376;8.742;2023-04-24T07:45:25;12.50;99.90
14349;DHT22;7258;50.376;8.742;2023-04-24T07:47:48;12.30;99.90
14349;DHT22;7258;50.376;8.742;2023-04-24T07:49:53;12.30;99.90
14349;DHT22;7258;50.376;8.742;2023-04-24T07:52:11;12.30;99.90
14349;DHT22;7258;50.376;8.742;2023-04-24T07:54:30;12.40;99.90
14349;DHT22;7258;50.376;8.742;2023-04-24T07:57:10;12.50;99.90
14349;DHT22;7258;50.376;8.742;2023-04-24T07:59:22;12.50;99.90
14349;DHT22;7258;50.376;8.742;2023-04-24T08:01:39;12.50;99.90
14349;DHT22;7258;50.376;8.742;2023-04-24T08:03:43;12.60;99.90
14349;DHT22;7258;50.376;8.742;2023-04-24T08:06:06;12.70;99.90
14349;DHT22;7258;50.376;8.742;2023-04-24T08:08:10;12.70;99.90
14349;DHT22;7258;50.376;8.742;2023-04-24T08:10:29;12.60;99.90
14349;DHT22;7258;50.376;8.742;2023-04-24T08:12:42;12.60;99.90
14349;DHT22;7258;50.376;8.742;2023-04-24T08:14:51;12.70;99.90
14349;DHT22;7258;50.376;8.742;2023-04-24T08:16:54;12.80;99.90
14349;DHT22;7258;50.376;8.742;2023-04-24T08:19:03;13.00;99.90
14349;DHT22;7258;50.376;8.742;2023-04-24T08:21:08;13.20;99.90
14349;DHT22;7258;50.376;8.742;2023-04-24T08:23:17;13.30;99.90
14349;DHT22;7258;50.376;8.742;2023-04-24T08:25:40;13.40;99.90
14349;DHT22;7258;50.376;8.742;2023-04-24T08:27:45;13.40;99.90
14349;DHT22;7258;50.376;8.742;2023-04-24T08:30:14;13.40;99.90
14349;DHT22;7258;50.376;8.742;2023-04-24T08:32:23;13.60;99.90
14349;DHT22;7258;50.376;8.742;2023-04-24T08:34:31;13.50;99.90
14349;DHT22;7258;50.376;8.742;2023-04-24T08:39:40;13.40;99.90
14349;DHT22;7258;50.376;8.742;2023-04-24T08:41:34;13.50;99.90
14349;DHT22;7258;50.376;8.742;2023-04-24T08:43:39;13.50;99.90
14349;DHT22;7258;50.376;8.742;2023-04-24T08:45:56;13.40;99.90
14349;DHT22;7258;50.376;8.742;2023-04-24T08:48:07;13.30;99.90
14349;DHT22;7258;50.376;8.742;2023-04-24T08:50:28;13.10;99.70
14349;DHT22;7258;50.376;8.742;2023-04-24T08:52:32;13.10;99.90
14349;DHT22;7258;50.376;8.742;2023-04-24T08:55:06;12.80;99.90
14349;DHT22;7258;50.376;8.742;2023-04-24T08:57:17;12.90;99.90
14349;DHT22;7258;50.376;8.742;2023-04-24T08:59:38;12.80;99.90
14349;DHT22;7258;50.376;8.742;2023-04-24T09:05:28;12.60;99.90
14349;DHT22;7258;50.376;8.742;2023-04-24T09:07:45;12.80;99.90
14349;DHT22;7258;50.376;8.742;2023-04-24T09:10:20;12.70;99.90
14349;DHT22;7258;50.376;8.742;2023-04-24T09:15:58;12.80;99.90
14349;DHT22;7258;50.376;8.742;2023-04-24T09:18:12;13.00;99.90
14349;DHT22;7258;50.376;8.742;2023-04-24T09:20:29;13.40;99.90
14349;DHT22;7258;50.376;8.742;2023-04-24T09:22:34;13.60;99.90
14349;DHT22;7258;50.376;8.742;2023-04-24T09:24:40;13.50;99.90
14349;DHT22;7258;50.376;8.742;2023-04-24T09:27:14;13.30;99.90
14349;DHT22;7258;50.376;8.742;2023-04-24T09:30:22;13.10;99.90
14349;DHT22;7258;50.376;8.742;2023-04-24T09:32:41;13.00;99.90
14349;DHT22;7258;50.376;8.742;2023-04-24T09:35:08;13.00;99.90
14349;DHT22;7258;50.376;8.742;2023-04-24T09:37:50;13.10;99.90
14349;DHT22;7258;50.376;8.742;2023-04-24T09:40:08;13.20;99.90
14349;DHT22;7258;50.376;8.742;2023-04-24T09:42:51;13.30;99.90
14349;DHT22;7258;50.376;8.742;2023-04-24T09:47:51;13.40;99.90
14349;DHT22;7258;50.376;8.742;2023-04-24T09:50:12;13.40;99.90
14349;DHT22;7258;50.376;8.742;2023-04-24T09:55:11;13.00;99.90
14349;DHT22;7258;50.376;8.742;2023-04-24T09:57:21;12.80;99.90
14349;DHT22;7258;50.376;8.742;2023-04-24T09:59:31;12.70;99.90
14349;DHT22;7258;50.376;8.742;2023-04-24T10:01:49;12.50;99.90
14349;DHT22;7258;50.376;8.742;2023-04-24T10:04:03;12.60;99.90
14349;DHT22;7258;50.376;8.742;2023-04-24T10:06:31;12.70;99.90
14349;DHT22;7258;50.376;8.742;2023-04-24T10:08:38;12.90;99.90
14349;DHT22;7258;50.376;8.742;2023-04-24T10:11:09;13.00;99.90
14349;DHT22;7258;50.376;8.742;2023-04-24T10:13:23;13.40;99.90
14349;DHT22;7258;50.376;8.742;2023-04-24T10:15:33;13.60;99.90
14349;DHT22;7258;50.376;8.742;2023-04-24T10:20:34;14.30;99.90
14349;DHT22;7258;50.376;8.742;2023-04-24T10:22:51;14.30;99.90
14349;DHT22;7258;50.376;8.742;2023-04-24T10:24:54;14.20;99.90
14349;DHT22;7258;50.376;8.742;2023-04-24T10:27:03;14.20;99.90
14349;DHT22;7258;50.376;8.742;2023-04-24T10:29:20;14.50;99.90
14349;DHT22;7258;50.376;8.742;2023-04-24T10:31:31;14.60;99.90
14349;DHT22;7258;50.376;8.742;2023-04-24T10:33:43;14.40;99.90
14349;DHT22;7258;50.376;8.742;2023-04-24T10:35:58;14.10;99.90
14349;DHT22;7258;50.376;8.742;2023-04-24T10:38:09;14.00;99.90
14349;DHT22;7258;50.376;8.742;2023-04-24T10:40:17;14.30;99.90
14349;DHT22;7258;50.376;8.742;2023-04-24T10:42:24;14.40;99.90
14349;DHT22;7258;50.376;8.742;2023-04-24T10:44:43;14.50;99.90
14349;DHT22;7258;50.376;8.742;2023-04-24T10:47:04;14.50;99.90
14349;DHT22;7258;50.376;8.742;2023-04-24T10:49:15;14.40;99.90
14349;DHT22;7258;50.376;8.742;2023-04-24T10:52:00;14.40;99.90
14349;DHT22;7258;50.376;8.742;2023-04-24T10:54:49;14.10;99.90
14349;DHT22;7258;50.376;8.742;2023-04-24T10:57:28;13.40;99.90
14349;DHT22;7258;50.376;8.742;2023-04-24T10:59:35;13.20;99.90
14349;DHT22;7258;50.376;8.742;2023-04-24T11:02:06;13.00;99.90
14349;DHT22;7258;50.376;8.742;2023-04-24T11:04:13;12.70;99.90
14349;DHT22;7258;50.376;8.742;2023-04-24T11:06:28;12.50;99.90
14349;DHT22;7258;50.376;8.742;2023-04-24T11:09:03;12.40;99.90
14349;DHT22;7258;50.376;8.742;2023-04-24T11:11:22;12.00;99.90
14349;DHT22;7258;50.376;8.742;2023-04-24T11:14:05;11.70;99.90
14349;DHT22;7258;50.376;8.742;2023-04-24T11:16:27;11.50;99.90
14349;DHT22;7258;50.376;8.742;2023-04-24T11:18:37;11.10;99.90
14349;DHT22;7258;50.376;8.742;2023-04-24T11:20:44;10.90;99.90
14349;DHT22;7258;50.376;8.742;2023-04-24T11:23:03;10.80;99.90
14349;DHT22;7258;50.376;8.742;2023-04-24T11:25:39;10.70;99.90
14349;DHT22;7258;50.376;8.742;2023-04-24T11:29:59;10.60;99.90
14349;DHT22;7258;50.376;8.742;2023-04-24T11:31:40;10.80;99.90
14349;DHT22;7258;50.376;8.742;2023-04-24T11:34:36;11.00;99.90
14349;DHT22;7258;50.376;8.742;2023-04-24T11:41:36;11.40;99.90
14349;DHT22;7258;50.376;8.742;2023-04-24T11:47:33;11.60;99.90
14349;DHT22;7258;50.376;8.742;2023-04-24T11:50:50;12.20;99.90
14349;DHT22;7258;50.376;8.742;2023-04-24T11:52:59;12.50;99.90
14349;DHT22;7258;50.376;8.742;2023-04-24T11:59:04;13.00;99.90
14349;DHT22;7258;50.376;8.742;2023-04-24T12:02:24;13.20;99.90
14349;DHT22;7258;50.376;8.742;2023-04-24T12:04:50;13.30;99.90
14349;DHT22;7258;50.376;8.742;2023-04-24T12:07:03;13.40;99.90
14349;DHT22;7258;50.376;8.742;2023-04-24T12:10:09;13.30;99.90
14349;DHT22;7258;50.376;8.742;2023-04-24T12:12:14;13.10;99.90
14349;DHT22;7258;50.376;8.742;2023-04-24T12:14:20;13.10;99.90
14349;DHT22;7258;50.376;8.742;2023-04-24T12:16:26;12.80;99.90
14349;DHT22;7258;50.376;8.742;2023-04-24T12:18:45;12.80;99.90
14349;DHT22;7258;50.376;8.742;2023-04-24T12:21:23;12.80;99.90
14349;DHT22;7258;50.376;8.742;2023-04-24T12:23:59;12.80;99.90
14349;DHT22;7258;50.376;8.742;2023-04-24T12:26:16;13.00;99.90
14349;DHT22;7258;50.376;8.742;2023-04-24T12:28:55;12.80;99.90
14349;DHT22;7258;50.376;8.742;2023-04-24T12:31:07;12.90;99.90
14349;DHT22;7258;50.376;8.742;2023-04-24T12:33:21;13.20;99.90
14349;DHT22;7258;50.376;8.742;2023-04-24T12:35:29;13.10;99.90
14349;DHT22;7258;50.376;8.742;2023-04-24T12:37:36;13.20;99.90
14349;DHT22;7258;50.376;8.742;2023-04-24T12:40:04;13.10;99.90
14349;DHT22;7258;50.376;8.742;2023-04-24T12:42:28;12.80;99.90
14349;DHT22;7258;50.376;8.742;2023-04-24T12:44:41;12.30;99.90
14349;DHT22;7258;50.376;8.742;2023-04-24T12:46:48;12.00;99.90
14349;DHT22;7258;50.376;8.742;2023-04-24T12:48:54;11.70;99.90
14349;DHT22;7258;50.376;8.742;2023-04-24T12:51:03;11.80;99.90
14349;DHT22;7258;50.376;8.742;2023-04-24T12:53:18;11.80;99.90
14349;DHT22;7258;50.376;8.742;2023-04-24T12:55:32;11.60;99.90
14349;DHT22;7258;50.376;8.742;2023-04-24T12:57:36;11.50;99.90
14349;DHT22;7258;50.376;8.742;2023-04-24T12:59:40;11.50;99.90
14349;DHT22;7258;50.376;8.742;2023-04-24T13:01:43;11.80;99.90
14349;DHT22;7258;50.376;8.742;2023-04-24T13:03:48;11.80;99.90
14349;DHT22;7258;50.376;8.742;2023-04-24T13:06:34;11.90;99.90
14349;DHT22;7258;50.376;8.742;2023-04-24T13:09:34;11.90;99.90
14349;DHT22;7258;50.376;8.742;2023-04-24T13:11:40;11.90;99.90
14349;DHT22;7258;50.376;8.742;2023-04-24T13:13:51;11.90;99.90
14349;DHT22;7258;50.376;8.742;2023-04-24T13:15:59;11.90;99.90
14349;DHT22;7258;50.376;8.742;2023-04-24T13:18:09;12.00;99.90
14349;DHT22;7258;50.376;8.742;2023-04-24T13:20:14;11.90;99.90
14349;DHT22;7258;50.376;8.742;2023-04-24T13:22:20;12.00;99.90
14349;DHT22;7258;50.376;8.742;2023-04-24T13:24:25;12.10;99.90
14349;DHT22;7258;50.376;8.742;2023-04-24T13:26:31;12.40;99.90
14349;DHT22;7258;50.376;8.742;2023-04-24T13:28:34;12.70;99.90
14349;DHT22;7258;50.376;8.742;2023-04-24T13:30:43;12.50;99.90
14349;DHT22;7258;50.376;8.742;2023-04-24T13:32:51;12.50;99.90
14349;DHT22;7258;50.376;8.742;2023-04-24T13:34:54;12.60;99.90
14349;DHT22;7258;50.376;8.742;2023-04-24T13:36:59;12.80;99.90
14349;DHT22;7258;50.376;8.742;2023-04-24T13:39:02;13.10;99.90
14349;DHT22;7258;50.376;8.742;2023-04-24T13:41:07;13.30;99.90
14349;DHT22;7258;50.376;8.742;2023-04-24T13:43:10;13.50;99.90
14349;DHT22;7258;50.376;8.742;2023-04-24T13:45:19;13.60;99.90
14349;DHT22;7258;50.376;8.742;2023-04-24T13:47:29;13.40;99.90
14349;DHT22;7258;50.376;8.742;2023-04-24T13:49:36;13.30;99.90
14349;DHT22;7258;50.376;8.742;2023-04-24T13:51:44;13.40;99.90
14349;DHT22;7258;50.376;8.742;2023-04-24T13:53:52;13.40;99.90
14349;DHT22;7258;50.376;8.742;2023-04-24T13:55:58;13.40;99.90
14349;DHT22;7258;50.376;8.742;2023-04-24T13:58:10;13.40;99.90
14349;DHT22;7258;50.376;8.742;2023-04-24T14:00:17;13.30;99.90
14349;DHT22;7258;50.376;8.742;2023-04-24T14:02:20;13.00;99.90
14349;DHT22;7258;50.376;8.742;2023-04-24T14:04:25;12.80;99.90
14349;DHT22;7258;50.376;8.742;2023-04-24T14:06:37;12.80;99.90
14349;DHT22;7258;50.376;8.742;2023-04-24T14:08:42;12.80;99.90
14349;DHT22;7258;50.376;8.742;2023-04-24T14:10:46;12.70;99.90
14349;DHT22;7258;50.376;8.742;2023-04-24T14:12:54;12.50;99.90
14349;DHT22;7258;50.376;8.742;2023-04-24T14:15:00;12.70;99.90
14349;DHT22;7258;50.376;8.742;2023-04-24T14:17:03;12.80;99.90
14349;DHT22;7258;50.376;8.742;2023-04-24T14:19:07;13.30;99.90
14349;DHT22;7258;50.376;8.742;2023-04-24T14:21:12;13.70;99.90
14349;DHT22;7258;50.376;8.742;2023-04-24T14:23:18;13.70;99.90
14349;DHT22;7258;50.376;8.742;2023-04-24T14:25:22;13.60;99.90
14349;DHT22;7258;50.376;8.742;2023-04-24T14:27:33;13.70;99.90
14349;DHT22;7258;50.376;8.742;2023-04-24T14:29:40;13.90;99.90
14349;DHT22;7258;50.376;8.742;2023-04-24T14:31:43;14.20;99.90
14349;DHT22;7258;50.376;8.742;2023-04-24T14:33:50;14.20;99.90
14349;DHT22;7258;50.376;8.742;2023-04-24T14:35:56;14.40;99.90
14349;DHT22;7258;50.376;8.742;2023-04-24T14:37:59;14.70;99.90
14349;DHT22;7258;50.376;8.742;2023-04-24T14:40:06;14.90;99.90
14349;DHT22;7258;50.376;8.742;2023-04-24T14:42:30;14.80;99.90
14349;DHT22;7258;50.376;8.742;2023-04-24T14:44:36;14.70;99.90
14349;DHT22;7258;50.376;8.742;2023-04-24T14:46:41;14.60;99.90
14349;DHT22;7258;50.376;8.742;2023-04-24T14:48:44;14.30;99.90
14349;DHT22;7258;50.376;8.742;2023-04-24T14:50:50;13.80;99.90